Time;durP1;ratioP1;P1;durP2;ratioP2;P2;SDS_P1;SDS_P2;PMS_P1;PMS_P2;Temp;Humidity;BMP_temperature;BMP_pressure;BME280_temperature;BME280_humidity;BME280_pressure;Samples;Min_cycle;Max_cycle;Signal;HPM_P1;HPM_P2
2023/10/01 00:03:57;;;;;;;15.15;6.80;;;11.00;99.90;;;;;;25592442;23;20081;-58
2023/10/01 00:14:06;;;;;;;13.02;7.65;;;11.10;99.90;;;;;;25590617;23;20452;-58
2023/10/01 00:24:08;;;;;;;12.95;7.20;;;10.90;99.90;;;;;;25633110;23;20103;-57
2023/10/01 00:34:09;;;;;;;14.00;7.57;;;10.80;99.90;;;;;;25590679;23;20385;-59
2023/10/01 00:44:13;;;;;;;10.07;6.38;;;10.70;99.90;;;;;;25563570;23;20009;-52
2023/10/01 00:54:15;;;;;;;10.30;5.90;;;10.60;99.90;;;;;;25588602;23;20440;-58
2023/10/01 01:04:23;;;;;;;13.52;6.90;;;10.60;99.90;;;;;;25590603;23;20417;-58
2023/10/01 01:14:27;;;;;;;14.13;6.90;;;10.50;99.90;;;;;;25603334;23;20001;-58
2023/10/01 01:24:30;;;;;;;7.85;4.93;;;10.30;99.90;;;;;;25588195;23;20012;-59
2023/10/01 01:34:35;;;;;;;8.95;5.50;;;10.30;99.90;;;;;;25587754;23;20392;-58
2023/10/01 01:44:38;;;;;;;9.07;6.13;;;10.30;99.90;;;;;;25586113;23;20013;-59
2023/10/01 01:54:42;;;;;;;10.18;6.80;;;10.30;99.90;;;;;;25561173;23;20376;-58
2023/10/01 02:05:09;;;;;;;10.88;6.25;;;10.20;99.90;;;;;;25588347;23;20055;-49
2023/10/01 02:15:11;;;;;;;12.52;7.65;;;10.10;99.90;;;;;;25636548;23;20328;-58
2023/10/01 02:25:13;;;;;;;12.50;8.50;;;10.00;99.90;;;;;;25595281;23;20413;-58
2023/10/01 02:35:34;;;;;;;13.95;6.72;;;10.20;99.90;;;;;;25594599;23;20571;-52
2023/10/01 02:45:41;;;;;;;13.15;9.07;;;10.80;99.90;;;;;;25635413;23;20001;-59
2023/10/01 02:55:46;;;;;;;13.20;8.80;;;10.40;99.90;;;;;;25635985;23;20016;-60
2023/10/01 03:05:48;;;;;;;12.27;8.23;;;10.40;99.90;;;;;;25593451;23;20350;-58
2023/10/01 03:26:10;;;;;;;14.15;9.43;;;10.10;99.90;;;;;;25633648;23;20009;-57
2023/10/01 03:36:16;;;;;;;20.63;14.23;;;10.30;99.90;;;;;;25593593;23;20013;-59
2023/10/01 03:56:30;;;;;;;16.83;10.15;;;10.00;99.90;;;;;;25631723;23;20051;-58
2023/10/01 04:06:32;;;;;;;19.83;12.50;;;9.90;99.90;;;;;;25631578;23;20009;-59
2023/10/01 04:16:34;;;;;;;21.55;11.30;;;10.00;99.90;;;;;;25591714;23;20005;-49
2023/10/01 04:26:36;;;;;;;25.05;15.10;;;9.80;99.90;;;;;;25563941;23;20370;-53
2023/10/01 04:36:39;;;;;;;12.15;8.23;;;9.80;99.90;;;;;;25588803;23;20444;-50
2023/10/01 04:46:41;;;;;;;18.30;13.18;;;9.70;99.90;;;;;;25588804;23;20013;-59
2023/10/01 04:56:48;;;;;;;23.27;17.48;;;9.80;99.90;;;;;;25588136;23;20008;-51
2023/10/01 05:07:04;;;;;;;27.08;16.80;;;9.60;99.90;;;;;;25629277;23;20433;-50
2023/10/01 05:17:07;;;;;;;25.52;17.33;;;9.60;99.90;;;;;;25628314;23;20302;-50
2023/10/01 05:27:18;;;;;;;29.25;17.75;;;9.60;99.90;;;;;;25587531;23;20009;-50
2023/10/01 05:37:36;;;;;;;27.23;17.27;;;9.80;99.90;;;;;;25590881;23;20449;-52
2023/10/01 05:47:54;;;;;;;26.25;18.17;;;9.90;99.90;;;;;;25641067;23;20013;-58
2023/10/01 05:58:12;;;;;;;17.67;12.80;;;10.10;99.90;;;;;;25642030;23;20005;-58
2023/10/01 06:08:18;;;;;;;16.70;10.23;;;10.30;99.90;;;;;;25641738;23;20051;-58
2023/10/01 06:18:20;;;;;;;16.92;11.38;;;10.40;99.90;;;;;;25600266;23;20036;-51
2023/10/01 06:28:23;;;;;;;18.25;12.18;;;10.70;99.90;;;;;;25599934;23;20005;-58
2023/10/01 06:38:26;;;;;;;19.05;12.88;;;11.30;99.90;;;;;;25640943;23;20009;-58
2023/10/01 06:48:28;;;;;;;19.27;12.80;;;11.30;99.90;;;;;;25599716;23;20072;-60
2023/10/01 06:58:29;;;;;;;21.13;13.05;;;11.40;99.90;;;;;;25593325;23;20005;-59
2023/10/01 07:08:37;;;;;;;19.08;13.23;;;12.00;99.90;;;;;;25592522;23;20286;-58
2023/10/01 07:18:39;;;;;;;17.30;12.13;;;12.90;99.90;;;;;;25632765;23;20012;-51
2023/10/01 07:28:42;;;;;;;16.63;11.60;;;13.80;99.90;;;;;;25591107;23;20411;-51
2023/10/01 07:38:48;;;;;;;15.65;12.10;;;14.80;99.90;;;;;;25590947;23;20009;-60
2023/10/01 07:48:51;;;;;;;14.57;9.65;;;15.70;99.90;;;;;;25631885;23;20009;-60
2023/10/01 08:09:14;;;;;;;13.43;9.75;;;17.70;99.90;;;;;;25630598;23;20005;-61
2023/10/01 08:19:20;;;;;;;11.95;9.10;;;18.50;99.90;;;;;;25588786;23;20005;-61
2023/10/01 08:29:27;;;;;;;14.48;9.27;;;19.10;99.90;;;;;;25611924;23;20017;-51
2023/10/01 08:39:48;;;;;;;13.25;10.35;;;19.10;99.90;;;;;;25629522;23;20345;-61
2023/10/01 08:49:53;;;;;;;11.93;9.07;;;19.60;99.90;;;;;;25629879;23;20008;-61
2023/10/01 08:59:59;;;;;;;11.98;9.98;;;20.10;99.90;;;;;;25586453;23;20079;-61
2023/10/01 09:10:17;;;;;;;13.57;9.13;;;20.50;99.90;;;;;;25628924;23;20052;-61
2023/10/01 09:20:40;;;;;;;15.20;9.43;;;21.00;99.90;;;;;;25628497;23;20012;-61
2023/10/01 09:41:46;;;;;;;11.48;8.93;;;21.60;99.90;;;;;;25089854;23;20011;-61
2023/10/01 09:51:53;;;;;;;11.07;8.13;;;21.90;99.90;;;;;;25089808;23;20043;-61
2023/10/01 10:02:02;;;;;;;8.82;7.75;;;22.00;99.90;;;;;;25110389;23;20099;-60
2023/10/01 10:12:07;;;;;;;12.10;7.78;;;22.30;98.10;;;;;;25511854;23;20429;-60
2023/10/01 10:22:09;;;;;;;11.93;8.40;;;22.30;99.00;;;;;;25586486;23;20013;-60
2023/10/01 10:32:12;;;;;;;10.73;8.20;;;22.10;99.70;;;;;;25591363;23;20028;-60
2023/10/01 10:42:31;;;;;;;13.18;9.88;;;22.10;99.80;;;;;;25593154;23;20005;-61
2023/10/01 10:52:33;;;;;;;11.45;10.25;;;22.20;99.80;;;;;;25633715;23;20004;-59
2023/10/01 11:02:42;;;;;;;10.45;8.98;;;22.40;99.90;;;;;;25592756;23;20036;-61
2023/10/01 11:12:54;;;;;;;15.05;9.60;;;22.60;99.90;;;;;;25632884;23;20059;-60
2023/10/01 11:22:56;;;;;;;12.45;9.60;;;22.40;99.90;;;;;;25632532;23;20005;-61
2023/10/01 11:43:05;;;;;;;12.20;10.77;;;22.70;99.90;;;;;;25632262;23;20079;-61
2023/10/01 11:53:07;;;;;;;15.02;11.55;;;22.80;99.90;;;;;;25589932;23;20009;-61
2023/10/01 12:03:11;;;;;;;11.90;9.75;;;22.70;99.90;;;;;;25590791;23;20075;-62
2023/10/01 12:13:13;;;;;;;13.15;9.77;;;22.60;99.90;;;;;;25589794;23;20012;-61
2023/10/01 12:23:16;;;;;;;16.88;10.60;;;22.60;99.90;;;;;;25589515;23;20009;-62
2023/10/01 12:33:21;;;;;;;11.52;9.05;;;22.70;99.90;;;;;;25590156;23;20333;-62
2023/10/01 12:43:36;;;;;;;16.77;10.27;;;22.70;99.90;;;;;;25588724;23;20068;-62
2023/10/01 12:54:18;;;;;;;11.43;9.95;;;22.70;99.90;;;;;;25629501;23;20001;-52
2023/10/01 13:04:25;;;;;;;13.67;10.47;;;22.60;99.90;;;;;;25583748;23;20079;-62
2023/10/01 13:14:30;;;;;;;12.55;9.05;;;22.40;99.90;;;;;;25629268;23;20622;-63
2023/10/01 13:24:32;;;;;;;11.48;9.52;;;22.50;99.90;;;;;;25587417;23;20012;-62
2023/10/01 14:16:11;;;;;;;14.48;10.80;;;19.80;99.90;;;;;;25635202;23;20372;-61
2023/10/01 14:26:17;;;;;;;12.20;10.90;;;19.50;99.90;;;;;;25635421;23;20012;-61
2023/10/01 14:36:20;;;;;;;14.35;11.50;;;19.10;99.90;;;;;;25601579;23;20083;-61
2023/10/01 14:46:30;;;;;;;12.48;10.85;;;18.70;99.90;;;;;;25593138;23;20387;-60
2023/10/01 14:56:34;;;;;;;15.52;12.52;;;18.40;99.90;;;;;;25634015;23;20028;-60
2023/10/01 15:06:36;;;;;;;13.82;11.38;;;18.10;99.90;;;;;;25591213;23;20005;-60
2023/10/01 15:16:38;;;;;;;19.05;13.68;;;17.70;99.90;;;;;;25591160;23;20005;-61
2023/10/01 15:26:43;;;;;;;16.23;13.27;;;17.30;99.90;;;;;;25592157;23;20009;-60
2023/10/01 15:46:56;;;;;;;16.48;12.90;;;16.60;99.90;;;;;;25590689;23;20009;-53
2023/10/01 15:56:58;;;;;;;19.58;14.38;;;16.00;99.90;;;;;;25631951;23;20433;-60
2023/10/01 16:07:03;;;;;;;19.15;14.95;;;15.40;99.90;;;;;;25590357;23;20043;-60
2023/10/01 16:17:40;;;;;;;21.70;15.70;;;14.90;99.90;;;;;;25537565;23;20055;-59
2023/10/01 16:27:33;;;;;;;20.08;14.88;;;14.40;99.90;;;;;;25582716;23;20009;-59
2023/10/01 16:37:39;;;;;;;21.50;17.55;;;14.10;99.90;;;;;;25589668;23;20071;-60
2023/10/01 16:47:52;;;;;;;22.45;16.20;;;13.80;99.90;;;;;;25589718;23;20341;-59
2023/10/01 16:57:57;;;;;;;23.67;15.43;;;13.50;99.90;;;;;;25629201;23;20444;-59
2023/10/01 17:07:58;;;;;;;26.05;16.30;;;13.20;99.90;;;;;;25588237;23;20005;-52
2023/10/01 17:18:02;;;;;;;25.88;17.17;;;13.10;99.90;;;;;;25588921;23;20079;-53
2023/10/01 17:28:23;;;;;;;25.77;16.13;;;12.60;99.90;;;;;;25588394;23;20032;-59
2023/10/01 17:38:26;;;;;;;24.15;15.45;;;12.60;99.90;;;;;;25560958;23;20009;-58
2023/10/01 17:48:30;;;;;;;26.98;16.65;;;12.50;99.90;;;;;;25588004;23;20448;-58
2023/10/01 17:58:34;;;;;;;25.92;16.45;;;12.30;99.90;;;;;;25587706;23;20052;-58
2023/10/01 18:08:40;;;;;;;29.75;17.20;;;12.20;99.90;;;;;;25587680;23;20037;-60
2023/10/01 18:18:42;;;;;;;27.25;16.70;;;11.80;99.90;;;;;;25602233;23;20013;-59
2023/10/01 18:28:44;;;;;;;29.85;16.60;;;11.50;99.90;;;;;;25587117;23;20013;-59
2023/10/01 18:38:50;;;;;;;30.02;15.20;;;11.40;99.90;;;;;;25627961;23;20005;-59
2023/10/01 18:48:52;;;;;;;27.60;14.65;;;11.50;99.90;;;;;;25630493;23;20059;-60
2023/10/01 18:58:56;;;;;;;27.80;14.52;;;11.70;99.90;;;;;;25594090;23;20009;-59
2023/10/01 19:08:59;;;;;;;27.50;15.68;;;11.70;99.90;;;;;;25590435;23;20013;-58
2023/10/01 19:19:03;;;;;;;25.00;15.00;;;11.50;99.90;;;;;;25567937;23;20432;-51
2023/10/01 19:29:05;;;;;;;29.48;15.18;;;11.60;99.90;;;;;;25593731;23;20028;-51
2023/10/01 19:39:40;;;;;;;26.25;16.45;;;11.70;99.90;;;;;;25593581;23;20008;-59
2023/10/01 19:49:33;;;;;;;27.70;16.63;;;12.00;99.90;;;;;;25593030;23;20013;-58
2023/10/01 19:59:37;;;;;;;30.35;16.85;;;11.70;99.90;;;;;;25592592;23;20009;-58
2023/10/01 20:09:41;;;;;;;28.58;15.40;;;11.40;99.90;;;;;;25592318;23;20005;-59
2023/10/01 20:19:46;;;;;;;33.30;16.80;;;11.70;99.90;;;;;;25592166;23;20433;-58
2023/10/01 20:29:48;;;;;;;31.23;22.15;;;11.40;99.90;;;;;;25592337;23;20437;-58
2023/10/01 20:39:50;;;;;;;29.67;18.85;;;11.40;99.90;;;;;;25590931;23;20026;-58
2023/10/01 20:49:52;;;;;;;25.80;16.67;;;11.40;99.90;;;;;;25591043;23;20016;-48
2023/10/01 20:59:55;;;;;;;25.60;16.55;;;11.50;99.90;;;;;;25590288;23;20441;-53
2023/10/01 21:09:57;;;;;;;30.42;16.77;;;11.50;99.90;;;;;;25589938;23;20005;-49
2023/10/01 21:20:09;;;;;;;30.23;15.77;;;11.40;99.90;;;;;;25590003;23;20009;-58
2023/10/01 21:30:13;;;;;;;25.77;14.80;;;11.40;99.90;;;;;;25619647;23;20013;-52
2023/10/01 21:40:18;;;;;;;24.10;15.23;;;11.20;99.90;;;;;;25589208;23;20450;-58
2023/10/01 21:50:20;;;;;;;31.13;21.50;;;11.40;99.90;;;;;;25588842;23;20318;-58
2023/10/01 22:00:40;;;;;;;25.83;15.55;;;11.30;99.90;;;;;;25588759;23;20009;-58
2023/10/01 22:10:42;;;;;;;;;;;11.20;99.90;;;;;;25630441;23;20008;-52
2023/10/01 22:20:43;;;;;;;26.00;16.15;;;11.50;99.90;;;;;;25588728;23;20391;-58
2023/10/01 22:30:46;;;;;;;27.13;17.98;;;11.40;99.90;;;;;;25595931;23;20021;-58
2023/10/01 22:40:49;;;;;;;33.03;21.63;;;11.30;99.90;;;;;;25595742;23;20009;-59
2023/10/01 22:50:57;;;;;;;28.80;18.15;;;11.20;99.90;;;;;;25595331;23;20004;-49
2023/10/01 23:01:03;;;;;;;27.88;18.65;;;10.90;99.90;;;;;;25636208;23;20009;-50
2023/10/01 23:11:04;;;;;;;39.60;27.23;;;10.80;99.90;;;;;;25594681;23;20002;-58
2023/10/01 23:21:07;;;;;;;36.75;26.48;;;10.90;99.90;;;;;;25594514;23;20433;-51
2023/10/01 23:31:15;;;;;;;44.20;30.33;;;10.90;99.90;;;;;;25593683;23;20142;-51
2023/10/01 23:41:47;;;;;;;42.10;26.17;;;10.90;99.90;;;;;;25634181;23;20005;-58
2023/10/01 23:51:53;;;;;;;41.70;28.23;;;10.90;99.90;;;;;;25593154;23;20005;-59
